sensor_id;sensor_type;location;lat;lon;timestamp;P1;durP1;ratioP1;P2;durP2;ratioP2
21420;SDS011;10871;50.144;8.428;2023-09-30T00:01:39;14.55;;;6.20;;
21420;SDS011;10871;50.144;8.428;2023-09-30T00:04:06;15.23;;;5.85;;
21420;SDS011;10871;50.144;8.428;2023-09-30T00:06:33;14.15;;;6.47;;
21420;SDS011;10871;50.144;8.428;2023-09-30T00:09:00;15.20;;;6.40;;
21420;SDS011;10871;50.144;8.428;2023-09-30T00:11:27;13.68;;;6.00;;
21420;SDS011;10871;50.144;8.428;2023-09-30T00:13:54;14.25;;;6.93;;
21420;SDS011;10871;50.144;8.428;2023-09-30T00:16:20;13.65;;;6.90;;
21420;SDS011;10871;50.144;8.428;2023-09-30T00:18:47;15.98;;;6.50;;
21420;SDS011;10871;50.144;8.428;2023-09-30T00:21:13;12.68;;;6.80;;
21420;SDS011;10871;50.144;8.428;2023-09-30T00:23:41;18.63;;;7.50;;
21420;SDS011;10871;50.144;8.428;2023-09-30T00:26:08;16.25;;;7.45;;
21420;SDS011;10871;50.144;8.428;2023-09-30T00:28:34;13.90;;;7.38;;
21420;SDS011;10871;50.144;8.428;2023-09-30T00:31:01;12.25;;;6.75;;
21420;SDS011;10871;50.144;8.428;2023-09-30T00:33:27;17.33;;;7.63;;
21420;SDS011;10871;50.144;8.428;2023-09-30T00:35:54;17.02;;;8.13;;
21420;SDS011;10871;50.144;8.428;2023-09-30T00:38:21;12.30;;;7.32;;
21420;SDS011;10871;50.144;8.428;2023-09-30T00:40:50;12.05;;;6.97;;
21420;SDS011;10871;50.144;8.428;2023-09-30T00:43:18;16.80;;;7.30;;
21420;SDS011;10871;50.144;8.428;2023-09-30T00:45:44;14.32;;;6.82;;
21420;SDS011;10871;50.144;8.428;2023-09-30T00:48:11;15.35;;;7.03;;
21420;SDS011;10871;50.144;8.428;2023-09-30T00:50:38;13.07;;;7.75;;
21420;SDS011;10871;50.144;8.428;2023-09-30T00:53:06;18.35;;;7.72;;
21420;SDS011;10871;50.144;8.428;2023-09-30T00:55:33;18.45;;;7.65;;
21420;SDS011;10871;50.144;8.428;2023-09-30T00:58:00;15.32;;;7.80;;
21420;SDS011;10871;50.144;8.428;2023-09-30T01:00:27;15.35;;;8.20;;
21420;SDS011;10871;50.144;8.428;2023-09-30T01:02:55;13.98;;;7.82;;
21420;SDS011;10871;50.144;8.428;2023-09-30T01:05:23;15.15;;;7.28;;
21420;SDS011;10871;50.144;8.428;2023-09-30T01:07:50;14.90;;;7.57;;
21420;SDS011;10871;50.144;8.428;2023-09-30T01:10:16;14.45;;;7.22;;
21420;SDS011;10871;50.144;8.428;2023-09-30T01:12:45;18.85;;;6.90;;
21420;SDS011;10871;50.144;8.428;2023-09-30T01:15:11;15.38;;;6.93;;
21420;SDS011;10871;50.144;8.428;2023-09-30T01:17:38;14.73;;;6.50;;
21420;SDS011;10871;50.144;8.428;2023-09-30T01:20:05;12.77;;;6.47;;
21420;SDS011;10871;50.144;8.428;2023-09-30T01:22:35;13.98;;;6.32;;
21420;SDS011;10871;50.144;8.428;2023-09-30T01:25:02;15.43;;;6.35;;
21420;SDS011;10871;50.144;8.428;2023-09-30T01:27:28;17.67;;;6.57;;
21420;SDS011;10871;50.144;8.428;2023-09-30T01:29:56;15.02;;;6.85;;
21420;SDS011;10871;50.144;8.428;2023-09-30T01:32:24;15.95;;;6.00;;
21420;SDS011;10871;50.144;8.428;2023-09-30T01:34:52;16.45;;;6.65;;
21420;SDS011;10871;50.144;8.428;2023-09-30T01:37:18;14.88;;;6.15;;
21420;SDS011;10871;50.144;8.428;2023-09-30T01:39:46;15.43;;;6.30;;
21420;SDS011;10871;50.144;8.428;2023-09-30T01:42:13;15.07;;;5.90;;
21420;SDS011;10871;50.144;8.428;2023-09-30T01:44:39;16.40;;;7.60;;
21420;SDS011;10871;50.144;8.428;2023-09-30T01:47:06;13.50;;;7.25;;
21420;SDS011;10871;50.144;8.428;2023-09-30T01:49:32;14.13;;;6.28;;
21420;SDS011;10871;50.144;8.428;2023-09-30T01:51:59;19.88;;;7.00;;
21420;SDS011;10871;50.144;8.428;2023-09-30T01:54:25;13.85;;;6.15;;
21420;SDS011;10871;50.144;8.428;2023-09-30T01:56:52;16.55;;;6.57;;
21420;SDS011;10871;50.144;8.428;2023-09-30T01:59:19;13.93;;;6.05;;
21420;SDS011;10871;50.144;8.428;2023-09-30T02:01:45;19.27;;;6.22;;
21420;SDS011;10871;50.144;8.428;2023-09-30T02:04:15;16.38;;;6.18;;
21420;SDS011;10871;50.144;8.428;2023-09-30T02:06:42;15.25;;;5.95;;
21420;SDS011;10871;50.144;8.428;2023-09-30T02:09:09;17.38;;;6.55;;
21420;SDS011;10871;50.144;8.428;2023-09-30T02:11:35;13.02;;;6.07;;
21420;SDS011;10871;50.144;8.428;2023-09-30T02:14:03;16.92;;;6.82;;
21420;SDS011;10871;50.144;8.428;2023-09-30T02:16:29;16.23;;;6.50;;
21420;SDS011;10871;50.144;8.428;2023-09-30T02:18:56;13.15;;;6.10;;
21420;SDS011;10871;50.144;8.428;2023-09-30T02:21:23;16.60;;;6.50;;
21420;SDS011;10871;50.144;8.428;2023-09-30T02:23:50;16.80;;;6.53;;
21420;SDS011;10871;50.144;8.428;2023-09-30T02:26:22;16.85;;;6.88;;
21420;SDS011;10871;50.144;8.428;2023-09-30T02:28:51;23.52;;;7.15;;
21420;SDS011;10871;50.144;8.428;2023-09-30T02:31:19;17.45;;;7.50;;
21420;SDS011;10871;50.144;8.428;2023-09-30T02:33:45;21.95;;;7.63;;
21420;SDS011;10871;50.144;8.428;2023-09-30T02:36:12;22.13;;;7.70;;
21420;SDS011;10871;50.144;8.428;2023-09-30T02:38:39;17.13;;;7.70;;
21420;SDS011;10871;50.144;8.428;2023-09-30T02:41:07;18.33;;;7.07;;
21420;SDS011;10871;50.144;8.428;2023-09-30T02:43:34;18.92;;;7.60;;
21420;SDS011;10871;50.144;8.428;2023-09-30T02:46:00;14.55;;;7.15;;
21420;SDS011;10871;50.144;8.428;2023-09-30T02:48:27;14.13;;;7.07;;
21420;SDS011;10871;50.144;8.428;2023-09-30T02:50:54;18.80;;;7.78;;
21420;SDS011;10871;50.144;8.428;2023-09-30T02:53:21;16.00;;;7.32;;
21420;SDS011;10871;50.144;8.428;2023-09-30T02:55:48;15.63;;;7.22;;
21420;SDS011;10871;50.144;8.428;2023-09-30T02:58:16;16.10;;;6.65;;
21420;SDS011;10871;50.144;8.428;2023-09-30T03:00:48;21.05;;;7.00;;
21420;SDS011;10871;50.144;8.428;2023-09-30T03:03:16;15.80;;;7.47;;
21420;SDS011;10871;50.144;8.428;2023-09-30T03:05:43;24.55;;;7.50;;
21420;SDS011;10871;50.144;8.428;2023-09-30T03:08:11;17.40;;;9.10;;
21420;SDS011;10871;50.144;8.428;2023-09-30T03:10:38;21.38;;;7.97;;
21420;SDS011;10871;50.144;8.428;2023-09-30T03:13:07;16.10;;;7.32;;
21420;SDS011;10871;50.144;8.428;2023-09-30T03:15:35;15.43;;;7.60;;
21420;SDS011;10871;50.144;8.428;2023-09-30T03:18:02;14.77;;;7.30;;
21420;SDS011;10871;50.144;8.428;2023-09-30T03:20:30;27.67;;;9.63;;
21420;SDS011;10871;50.144;8.428;2023-09-30T03:22:57;16.98;;;7.85;;
21420;SDS011;10871;50.144;8.428;2023-09-30T03:25:24;18.10;;;7.80;;
21420;SDS011;10871;50.144;8.428;2023-09-30T03:27:50;17.65;;;8.23;;
21420;SDS011;10871;50.144;8.428;2023-09-30T03:30:17;19.70;;;8.27;;
21420;SDS011;10871;50.144;8.428;2023-09-30T03:32:46;22.23;;;9.00;;
21420;SDS011;10871;50.144;8.428;2023-09-30T03:35:14;23.95;;;8.75;;
21420;SDS011;10871;50.144;8.428;2023-09-30T03:37:44;22.58;;;9.27;;
21420;SDS011;10871;50.144;8.428;2023-09-30T03:40:11;18.27;;;8.20;;
21420;SDS011;10871;50.144;8.428;2023-09-30T03:42:41;20.00;;;8.95;;
21420;SDS011;10871;50.144;8.428;2023-09-30T03:45:10;18.08;;;9.02;;
21420;SDS011;10871;50.144;8.428;2023-09-30T03:47:38;19.70;;;9.63;;
21420;SDS011;10871;50.144;8.428;2023-09-30T03:50:04;19.08;;;9.20;;
21420;SDS011;10871;50.144;8.428;2023-09-30T03:52:32;19.88;;;8.88;;
21420;SDS011;10871;50.144;8.428;2023-09-30T03:55:00;17.17;;;9.73;;
21420;SDS011;10871;50.144;8.428;2023-09-30T03:57:30;16.90;;;9.63;;
21420;SDS011;10871;50.144;8.428;2023-09-30T03:59:57;17.50;;;9.35;;
21420;SDS011;10871;50.144;8.428;2023-09-30T04:02:24;23.42;;;11.02;;
21420;SDS011;10871;50.144;8.428;2023-09-30T04:04:51;22.85;;;10.35;;
21420;SDS011;10871;50.144;8.428;2023-09-30T04:07:20;19.27;;;10.50;;
21420;SDS011;10871;50.144;8.428;2023-09-30T04:09:47;23.55;;;11.63;;
21420;SDS011;10871;50.144;8.428;2023-09-30T04:12:14;20.58;;;11.13;;
21420;SDS011;10871;50.144;8.428;2023-09-30T04:14:41;21.10;;;11.10;;
21420;SDS011;10871;50.144;8.428;2023-09-30T04:17:08;21.55;;;11.32;;
21420;SDS011;10871;50.144;8.428;2023-09-30T04:19:35;19.92;;;11.07;;
21420;SDS011;10871;50.144;8.428;2023-09-30T04:22:02;19.98;;;10.35;;
21420;SDS011;10871;50.144;8.428;2023-09-30T04:24:29;20.35;;;10.80;;
21420;SDS011;10871;50.144;8.428;2023-09-30T04:26:55;22.70;;;11.68;;
21420;SDS011;10871;50.144;8.428;2023-09-30T04:29:28;22.02;;;11.35;;
21420;SDS011;10871;50.144;8.428;2023-09-30T04:31:56;23.13;;;11.43;;
21420;SDS011;10871;50.144;8.428;2023-09-30T04:34:22;24.70;;;11.70;;
21420;SDS011;10871;50.144;8.428;2023-09-30T04:36:49;19.25;;;12.27;;
21420;SDS011;10871;50.144;8.428;2023-09-30T04:39:16;19.80;;;10.85;;
21420;SDS011;10871;50.144;8.428;2023-09-30T04:41:42;23.13;;;12.55;;
21420;SDS011;10871;50.144;8.428;2023-09-30T04:44:09;25.50;;;12.27;;
21420;SDS011;10871;50.144;8.428;2023-09-30T04:46:36;24.45;;;12.88;;
21420;SDS011;10871;50.144;8.428;2023-09-30T04:49:07;20.85;;;11.88;;
21420;SDS011;10871;50.144;8.428;2023-09-30T04:51:33;24.08;;;12.80;;
21420;SDS011;10871;50.144;8.428;2023-09-30T04:54:00;23.92;;;12.05;;
21420;SDS011;10871;50.144;8.428;2023-09-30T04:56:28;24.60;;;13.05;;
21420;SDS011;10871;50.144;8.428;2023-09-30T04:58:55;20.27;;;12.63;;
21420;SDS011;10871;50.144;8.428;2023-09-30T05:01:21;24.23;;;12.73;;
21420;SDS011;10871;50.144;8.428;2023-09-30T05:03:48;23.25;;;13.10;;
21420;SDS011;10871;50.144;8.428;2023-09-30T05:06:16;22.05;;;13.07;;
21420;SDS011;10871;50.144;8.428;2023-09-30T05:08:42;18.52;;;13.27;;
21420;SDS011;10871;50.144;8.428;2023-09-30T05:11:09;20.27;;;12.80;;
21420;SDS011;10871;50.144;8.428;2023-09-30T05:13:36;24.65;;;13.25;;
21420;SDS011;10871;50.144;8.428;2023-09-30T05:16:03;22.67;;;12.18;;
21420;SDS011;10871;50.144;8.428;2023-09-30T05:18:30;25.08;;;13.82;;
21420;SDS011;10871;50.144;8.428;2023-09-30T05:20:57;23.38;;;12.63;;
21420;SDS011;10871;50.144;8.428;2023-09-30T05:23:24;25.25;;;13.25;;
21420;SDS011;10871;50.144;8.428;2023-09-30T05:25:50;23.35;;;14.18;;
21420;SDS011;10871;50.144;8.428;2023-09-30T05:28:17;24.02;;;13.50;;
21420;SDS011;10871;50.144;8.428;2023-09-30T05:30:43;22.40;;;13.20;;
21420;SDS011;10871;50.144;8.428;2023-09-30T05:33:12;25.20;;;13.23;;
21420;SDS011;10871;50.144;8.428;2023-09-30T05:35:43;24.02;;;13.55;;
21420;SDS011;10871;50.144;8.428;2023-09-30T05:38:09;20.80;;;12.93;;
21420;SDS011;10871;50.144;8.428;2023-09-30T05:40:36;22.77;;;13.52;;
21420;SDS011;10871;50.144;8.428;2023-09-30T05:43:02;25.40;;;14.43;;
21420;SDS011;10871;50.144;8.428;2023-09-30T05:45:32;26.30;;;13.77;;
21420;SDS011;10871;50.144;8.428;2023-09-30T05:48:02;22.27;;;13.60;;
21420;SDS011;10871;50.144;8.428;2023-09-30T05:50:32;23.88;;;13.10;;
21420;SDS011;10871;50.144;8.428;2023-09-30T05:53:00;24.08;;;13.07;;
21420;SDS011;10871;50.144;8.428;2023-09-30T05:55:26;21.35;;;12.77;;
21420;SDS011;10871;50.144;8.428;2023-09-30T05:57:54;23.15;;;13.35;;
21420;SDS011;10871;50.144;8.428;2023-09-30T06:00:21;25.52;;;13.95;;
21420;SDS011;10871;50.144;8.428;2023-09-30T06:02:57;22.67;;;13.00;;
21420;SDS011;10871;50.144;8.428;2023-09-30T06:05:24;23.02;;;12.75;;
21420;SDS011;10871;50.144;8.428;2023-09-30T06:07:52;18.42;;;13.10;;
21420;SDS011;10871;50.144;8.428;2023-09-30T06:10:21;21.48;;;12.63;;
21420;SDS011;10871;50.144;8.428;2023-09-30T06:12:48;20.45;;;12.13;;
21420;SDS011;10871;50.144;8.428;2023-09-30T06:15:15;22.00;;;12.68;;
21420;SDS011;10871;50.144;8.428;2023-09-30T06:20:15;19.63;;;11.25;;
21420;SDS011;10871;50.144;8.428;2023-09-30T06:22:44;24.88;;;12.63;;
21420;SDS011;10871;50.144;8.428;2023-09-30T06:25:16;21.70;;;11.10;;
21420;SDS011;10871;50.144;8.428;2023-09-30T06:27:43;22.50;;;11.90;;
21420;SDS011;10871;50.144;8.428;2023-09-30T06:30:11;15.55;;;11.02;;
21420;SDS011;10871;50.144;8.428;2023-09-30T06:32:37;22.98;;;10.27;;
21420;SDS011;10871;50.144;8.428;2023-09-30T06:35:04;15.30;;;10.75;;
21420;SDS011;10871;50.144;8.428;2023-09-30T06:37:32;18.33;;;10.00;;
21420;SDS011;10871;50.144;8.428;2023-09-30T06:39:59;18.92;;;11.02;;
21420;SDS011;10871;50.144;8.428;2023-09-30T06:42:31;19.50;;;11.80;;
21420;SDS011;10871;50.144;8.428;2023-09-30T06:44:57;24.30;;;11.38;;
21420;SDS011;10871;50.144;8.428;2023-09-30T06:47:24;19.20;;;10.82;;
21420;SDS011;10871;50.144;8.428;2023-09-30T06:49:50;17.63;;;10.45;;
21420;SDS011;10871;50.144;8.428;2023-09-30T06:52:17;19.20;;;9.70;;
21420;SDS011;10871;50.144;8.428;2023-09-30T06:54:43;15.15;;;9.73;;
21420;SDS011;10871;50.144;8.428;2023-09-30T06:57:10;17.02;;;9.85;;
21420;SDS011;10871;50.144;8.428;2023-09-30T06:59:36;15.55;;;8.95;;
21420;SDS011;10871;50.144;8.428;2023-09-30T07:02:04;15.88;;;8.88;;
21420;SDS011;10871;50.144;8.428;2023-09-30T07:04:30;14.35;;;8.80;;
21420;SDS011;10871;50.144;8.428;2023-09-30T07:06:57;12.38;;;7.57;;
21420;SDS011;10871;50.144;8.428;2023-09-30T07:09:23;10.95;;;7.38;;
21420;SDS011;10871;50.144;8.428;2023-09-30T07:11:50;13.93;;;6.53;;
21420;SDS011;10871;50.144;8.428;2023-09-30T07:14:17;11.88;;;6.53;;
21420;SDS011;10871;50.144;8.428;2023-09-30T07:16:44;11.35;;;6.00;;
21420;SDS011;10871;50.144;8.428;2023-09-30T07:19:10;10.77;;;5.82;;
21420;SDS011;10871;50.144;8.428;2023-09-30T07:21:37;10.93;;;5.80;;
21420;SDS011;10871;50.144;8.428;2023-09-30T07:24:04;9.93;;;6.25;;
21420;SDS011;10871;50.144;8.428;2023-09-30T07:26:31;10.43;;;6.55;;
21420;SDS011;10871;50.144;8.428;2023-09-30T07:28:58;10.18;;;6.55;;
21420;SDS011;10871;50.144;8.428;2023-09-30T07:31:25;10.70;;;6.50;;
21420;SDS011;10871;50.144;8.428;2023-09-30T07:33:52;9.68;;;6.07;;
21420;SDS011;10871;50.144;8.428;2023-09-30T07:36:19;9.23;;;5.88;;
21420;SDS011;10871;50.144;8.428;2023-09-30T07:38:46;11.55;;;6.00;;
21420;SDS011;10871;50.144;8.428;2023-09-30T07:41:13;13.35;;;6.03;;
21420;SDS011;10871;50.144;8.428;2023-09-30T07:43:40;11.55;;;6.28;;
21420;SDS011;10871;50.144;8.428;2023-09-30T07:46:06;11.88;;;5.68;;
21420;SDS011;10871;50.144;8.428;2023-09-30T07:48:34;8.60;;;5.25;;
21420;SDS011;10871;50.144;8.428;2023-09-30T07:51:01;11.85;;;5.28;;
21420;SDS011;10871;50.144;8.428;2023-09-30T07:53:28;12.05;;;5.78;;
21420;SDS011;10871;50.144;8.428;2023-09-30T07:55:56;9.15;;;5.38;;
21420;SDS011;10871;50.144;8.428;2023-09-30T07:58:23;10.10;;;5.20;;
21420;SDS011;10871;50.144;8.428;2023-09-30T08:00:50;10.88;;;5.45;;
21420;SDS011;10871;50.144;8.428;2023-09-30T08:03:17;11.20;;;6.00;;
21420;SDS011;10871;50.144;8.428;2023-09-30T08:05:44;10.27;;;5.47;;
21420;SDS011;10871;50.144;8.428;2023-09-30T08:08:12;13.80;;;5.90;;
21420;SDS011;10871;50.144;8.428;2023-09-30T08:10:42;10.50;;;6.43;;
21420;SDS011;10871;50.144;8.428;2023-09-30T08:13:08;8.95;;;5.15;;
21420;SDS011;10871;50.144;8.428;2023-09-30T08:15:36;9.23;;;5.43;;
21420;SDS011;10871;50.144;8.428;2023-09-30T08:18:03;10.82;;;5.93;;
21420;SDS011;10871;50.144;8.428;2023-09-30T08:20:32;12.55;;;6.25;;
21420;SDS011;10871;50.144;8.428;2023-09-30T08:22:59;12.43;;;6.28;;
21420;SDS011;10871;50.144;8.428;2023-09-30T08:25:26;12.05;;;5.68;;
21420;SDS011;10871;50.144;8.428;2023-09-30T08:27:53;13.07;;;5.30;;
21420;SDS011;10871;50.144;8.428;2023-09-30T08:30:22;10.07;;;5.88;;
21420;SDS011;10871;50.144;8.428;2023-09-30T08:32:48;10.55;;;6.30;;
21420;SDS011;10871;50.144;8.428;2023-09-30T08:35:15;11.27;;;5.63;;
21420;SDS011;10871;50.144;8.428;2023-09-30T08:37:42;9.20;;;5.53;;
21420;SDS011;10871;50.144;8.428;2023-09-30T08:40:08;11.93;;;5.45;;
21420;SDS011;10871;50.144;8.428;2023-09-30T08:42:36;8.48;;;5.35;;
21420;SDS011;10871;50.144;8.428;2023-09-30T08:45:05;9.63;;;5.28;;
21420;SDS011;10871;50.144;8.428;2023-09-30T08:47:34;8.85;;;5.07;;
21420;SDS011;10871;50.144;8.428;2023-09-30T08:50:02;9.70;;;4.85;;
21420;SDS011;10871;50.144;8.428;2023-09-30T08:52:35;9.40;;;5.53;;
21420;SDS011;10871;50.144;8.428;2023-09-30T08:55:07;10.23;;;5.28;;
21420;SDS011;10871;50.144;8.428;2023-09-30T08:57:35;10.68;;;5.25;;
21420;SDS011;10871;50.144;8.428;2023-09-30T09:00:03;7.97;;;4.88;;
21420;SDS011;10871;50.144;8.428;2023-09-30T09:02:30;10.80;;;5.22;;
21420;SDS011;10871;50.144;8.428;2023-09-30T09:04:58;10.68;;;4.65;;
21420;SDS011;10871;50.144;8.428;2023-09-30T09:10:17;10.10;;;4.32;;
21420;SDS011;10871;50.144;8.428;2023-09-30T09:12:44;8.10;;;4.50;;
21420;SDS011;10871;50.144;8.428;2023-09-30T09:15:22;8.38;;;4.60;;
21420;SDS011;10871;50.144;8.428;2023-09-30T09:17:49;8.77;;;4.60;;
21420;SDS011;10871;50.144;8.428;2023-09-30T09:20:18;10.52;;;4.78;;
21420;SDS011;10871;50.144;8.428;2023-09-30T09:22:49;8.25;;;3.40;;
21420;SDS011;10871;50.144;8.428;2023-09-30T09:25:17;5.88;;;2.42;;
21420;SDS011;10871;50.144;8.428;2023-09-30T09:27:44;5.63;;;3.72;;
21420;SDS011;10871;50.144;8.428;2023-09-30T09:30:14;4.47;;;2.40;;
21420;SDS011;10871;50.144;8.428;2023-09-30T09:33:01;4.70;;;2.38;;
21420;SDS011;10871;50.144;8.428;2023-09-30T09:35:28;5.82;;;2.63;;
21420;SDS011;10871;50.144;8.428;2023-09-30T09:38:05;4.60;;;2.35;;
21420;SDS011;10871;50.144;8.428;2023-09-30T09:40:33;4.90;;;2.70;;
21420;SDS011;10871;50.144;8.428;2023-09-30T09:43:00;5.82;;;2.88;;
21420;SDS011;10871;50.144;8.428;2023-09-30T09:45:34;4.60;;;2.90;;
21420;SDS011;10871;50.144;8.428;2023-09-30T09:48:02;5.38;;;2.78;;
21420;SDS011;10871;50.144;8.428;2023-09-30T09:50:31;4.13;;;2.60;;
21420;SDS011;10871;50.144;8.428;2023-09-30T09:53:02;4.50;;;2.40;;
21420;SDS011;10871;50.144;8.428;2023-09-30T09:55:30;5.35;;;2.78;;
21420;SDS011;10871;50.144;8.428;2023-09-30T09:57:57;5.65;;;3.83;;
21420;SDS011;10871;50.144;8.428;2023-09-30T10:00:25;5.30;;;2.80;;
21420;SDS011;10871;50.144;8.428;2023-09-30T10:02:52;5.03;;;3.38;;
21420;SDS011;10871;50.144;8.428;2023-09-30T10:05:19;5.35;;;2.92;;
21420;SDS011;10871;50.144;8.428;2023-09-30T10:10:14;7.68;;;6.22;;
21420;SDS011;10871;50.144;8.428;2023-09-30T10:12:43;5.18;;;2.80;;
21420;SDS011;10871;50.144;8.428;2023-09-30T10:20:30;5.78;;;3.17;;
21420;SDS011;10871;50.144;8.428;2023-09-30T10:25:43;4.03;;;2.88;;
21420;SDS011;10871;50.144;8.428;2023-09-30T10:28:31;4.40;;;3.28;;
21420;SDS011;10871;50.144;8.428;2023-09-30T10:31:09;3.67;;;2.45;;
21420;SDS011;10871;50.144;8.428;2023-09-30T10:36:33;6.10;;;2.75;;
21420;SDS011;10871;50.144;8.428;2023-09-30T10:39:00;4.00;;;2.80;;
21420;SDS011;10871;50.144;8.428;2023-09-30T10:46:56;5.68;;;2.58;;
21420;SDS011;10871;50.144;8.428;2023-09-30T10:51:50;3.08;;;2.42;;
21420;SDS011;10871;50.144;8.428;2023-09-30T10:56:50;5.93;;;2.80;;
21420;SDS011;10871;50.144;8.428;2023-09-30T10:59:20;4.53;;;2.80;;
21420;SDS011;10871;50.144;8.428;2023-09-30T11:01:46;4.18;;;2.50;;
21420;SDS011;10871;50.144;8.428;2023-09-30T11:04:13;4.03;;;2.78;;
21420;SDS011;10871;50.144;8.428;2023-09-30T11:06:42;4.45;;;2.80;;
21420;SDS011;10871;50.144;8.428;2023-09-30T11:09:09;4.22;;;2.70;;
21420;SDS011;10871;50.144;8.428;2023-09-30T11:11:39;3.88;;;2.90;;
21420;SDS011;10871;50.144;8.428;2023-09-30T11:14:19;3.15;;;2.22;;
21420;SDS011;10871;50.144;8.428;2023-09-30T11:16:47;4.75;;;2.60;;
21420;SDS011;10871;50.144;8.428;2023-09-30T11:19:15;4.38;;;3.08;;
21420;SDS011;10871;50.144;8.428;2023-09-30T11:21:42;4.35;;;2.80;;
21420;SDS011;10871;50.144;8.428;2023-09-30T11:24:10;5.07;;;2.83;;
21420;SDS011;10871;50.144;8.428;2023-09-30T11:26:37;5.43;;;2.88;;
21420;SDS011;10871;50.144;8.428;2023-09-30T11:31:33;4.35;;;2.90;;
21420;SDS011;10871;50.144;8.428;2023-09-30T11:34:00;4.30;;;3.08;;
21420;SDS011;10871;50.144;8.428;2023-09-30T11:36:30;4.65;;;2.83;;
21420;SDS011;10871;50.144;8.428;2023-09-30T11:39:00;5.88;;;3.05;;
21420;SDS011;10871;50.144;8.428;2023-09-30T11:41:35;5.20;;;3.08;;
21420;SDS011;10871;50.144;8.428;2023-09-30T11:44:05;4.63;;;3.10;;
21420;SDS011;10871;50.144;8.428;2023-09-30T11:46:48;4.03;;;3.20;;
21420;SDS011;10871;50.144;8.428;2023-09-30T11:52:06;5.65;;;2.95;;
21420;SDS011;10871;50.144;8.428;2023-09-30T11:54:41;6.18;;;3.05;;
21420;SDS011;10871;50.144;8.428;2023-09-30T11:57:11;6.50;;;4.28;;
21420;SDS011;10871;50.144;8.428;2023-09-30T11:59:38;7.55;;;3.75;;
21420;SDS011;10871;50.144;8.428;2023-09-30T12:02:08;5.95;;;3.65;;
21420;SDS011;10871;50.144;8.428;2023-09-30T12:04:40;5.40;;;4.17;;
21420;SDS011;10871;50.144;8.428;2023-09-30T12:07:07;5.35;;;2.90;;
21420;SDS011;10871;50.144;8.428;2023-09-30T12:09:34;5.53;;;3.13;;
21420;SDS011;10871;50.144;8.428;2023-09-30T12:12:03;5.40;;;3.50;;
21420;SDS011;10871;50.144;8.428;2023-09-30T12:14:30;4.65;;;3.88;;
21420;SDS011;10871;50.144;8.428;2023-09-30T12:16:57;5.63;;;3.67;;
21420;SDS011;10871;50.144;8.428;2023-09-30T12:19:24;5.28;;;3.55;;
21420;SDS011;10871;50.144;8.428;2023-09-30T12:21:53;6.00;;;3.38;;
21420;SDS011;10871;50.144;8.428;2023-09-30T12:24:20;7.30;;;3.40;;
21420;SDS011;10871;50.144;8.428;2023-09-30T12:26:48;8.32;;;3.97;;
21420;SDS011;10871;50.144;8.428;2023-09-30T12:29:19;5.05;;;3.17;;
21420;SDS011;10871;50.144;8.428;2023-09-30T12:31:46;7.38;;;3.65;;
21420;SDS011;10871;50.144;8.428;2023-09-30T12:34:19;6.05;;;3.47;;
21420;SDS011;10871;50.144;8.428;2023-09-30T12:36:46;5.18;;;3.03;;
21420;SDS011;10871;50.144;8.428;2023-09-30T12:39:14;5.38;;;2.92;;
21420;SDS011;10871;50.144;8.428;2023-09-30T12:41:43;6.10;;;3.47;;
21420;SDS011;10871;50.144;8.428;2023-09-30T12:44:12;5.15;;;2.72;;
21420;SDS011;10871;50.144;8.428;2023-09-30T12:46:39;5.43;;;2.95;;
21420;SDS011;10871;50.144;8.428;2023-09-30T12:49:06;6.75;;;3.17;;
21420;SDS011;10871;50.144;8.428;2023-09-30T12:51:34;7.10;;;2.85;;
21420;SDS011;10871;50.144;8.428;2023-09-30T12:54:00;5.90;;;2.97;;
21420;SDS011;10871;50.144;8.428;2023-09-30T12:56:29;6.88;;;3.17;;
21420;SDS011;10871;50.144;8.428;2023-09-30T12:58:56;5.65;;;3.10;;
21420;SDS011;10871;50.144;8.428;2023-09-30T13:01:23;6.47;;;2.80;;
21420;SDS011;10871;50.144;8.428;2023-09-30T13:03:49;6.28;;;3.13;;
21420;SDS011;10871;50.144;8.428;2023-09-30T13:06:16;7.43;;;2.95;;
21420;SDS011;10871;50.144;8.428;2023-09-30T13:08:43;5.82;;;3.08;;
21420;SDS011;10871;50.144;8.428;2023-09-30T13:11:10;8.68;;;3.35;;
21420;SDS011;10871;50.144;8.428;2023-09-30T13:13:37;5.15;;;2.83;;
21420;SDS011;10871;50.144;8.428;2023-09-30T13:16:04;5.60;;;3.10;;
21420;SDS011;10871;50.144;8.428;2023-09-30T13:18:33;9.10;;;3.33;;
21420;SDS011;10871;50.144;8.428;2023-09-30T13:21:01;6.53;;;3.08;;
21420;SDS011;10871;50.144;8.428;2023-09-30T13:23:27;7.80;;;3.08;;
21420;SDS011;10871;50.144;8.428;2023-09-30T13:25:54;5.70;;;3.15;;
21420;SDS011;10871;50.144;8.428;2023-09-30T13:28:20;5.68;;;2.80;;
21420;SDS011;10871;50.144;8.428;2023-09-30T13:30:47;7.25;;;3.30;;
21420;SDS011;10871;50.144;8.428;2023-09-30T13:33:14;7.45;;;3.30;;
21420;SDS011;10871;50.144;8.428;2023-09-30T13:35:41;7.72;;;3.42;;
21420;SDS011;10871;50.144;8.428;2023-09-30T13:38:08;8.00;;;3.28;;
21420;SDS011;10871;50.144;8.428;2023-09-30T13:40:34;5.32;;;2.92;;
21420;SDS011;10871;50.144;8.428;2023-09-30T13:43:07;6.72;;;3.45;;
21420;SDS011;10871;50.144;8.428;2023-09-30T13:45:33;6.07;;;3.20;;
21420;SDS011;10871;50.144;8.428;2023-09-30T13:48:03;8.10;;;4.10;;
21420;SDS011;10871;50.144;8.428;2023-09-30T13:50:29;7.03;;;3.10;;
21420;SDS011;10871;50.144;8.428;2023-09-30T13:52:56;6.75;;;3.10;;
21420;SDS011;10871;50.144;8.428;2023-09-30T13:55:23;9.70;;;3.47;;
21420;SDS011;10871;50.144;8.428;2023-09-30T13:57:50;8.38;;;3.25;;
21420;SDS011;10871;50.144;8.428;2023-09-30T14:00:17;8.32;;;3.70;;
21420;SDS011;10871;50.144;8.428;2023-09-30T14:02:44;8.13;;;3.83;;
21420;SDS011;10871;50.144;8.428;2023-09-30T14:05:11;7.78;;;3.67;;
21420;SDS011;10871;50.144;8.428;2023-09-30T14:07:40;9.32;;;3.20;;
21420;SDS011;10871;50.144;8.428;2023-09-30T14:10:07;9.75;;;3.88;;
21420;SDS011;10871;50.144;8.428;2023-09-30T14:12:37;7.57;;;3.25;;
21420;SDS011;10871;50.144;8.428;2023-09-30T14:15:04;6.85;;;3.40;;
21420;SDS011;10871;50.144;8.428;2023-09-30T14:17:32;9.00;;;3.40;;
21420;SDS011;10871;50.144;8.428;2023-09-30T14:19:58;6.05;;;3.65;;
21420;SDS011;10871;50.144;8.428;2023-09-30T14:22:25;5.25;;;3.15;;
21420;SDS011;10871;50.144;8.428;2023-09-30T14:24:53;8.07;;;3.80;;
21420;SDS011;10871;50.144;8.428;2023-09-30T14:27:19;10.40;;;4.28;;
21420;SDS011;10871;50.144;8.428;2023-09-30T14:29:47;5.97;;;3.53;;
21420;SDS011;10871;50.144;8.428;2023-09-30T14:32:15;6.78;;;3.78;;
21420;SDS011;10871;50.144;8.428;2023-09-30T14:34:41;6.40;;;3.67;;
21420;SDS011;10871;50.144;8.428;2023-09-30T14:37:08;6.25;;;3.35;;
21420;SDS011;10871;50.144;8.428;2023-09-30T14:39:35;8.25;;;3.65;;
21420;SDS011;10871;50.144;8.428;2023-09-30T14:42:02;6.68;;;3.47;;
21420;SDS011;10871;50.144;8.428;2023-09-30T14:44:29;7.15;;;3.60;;
21420;SDS011;10871;50.144;8.428;2023-09-30T14:46:55;7.20;;;3.70;;
21420;SDS011;10871;50.144;8.428;2023-09-30T14:49:23;5.57;;;3.50;;
21420;SDS011;10871;50.144;8.428;2023-09-30T14:51:49;5.65;;;3.40;;
21420;SDS011;10871;50.144;8.428;2023-09-30T14:54:16;7.13;;;3.63;;
21420;SDS011;10871;50.144;8.428;2023-09-30T14:56:43;5.53;;;3.35;;
21420;SDS011;10871;50.144;8.428;2023-09-30T14:59:09;6.88;;;3.33;;
21420;SDS011;10871;50.144;8.428;2023-09-30T15:01:36;7.68;;;3.53;;
21420;SDS011;10871;50.144;8.428;2023-09-30T15:04:03;8.38;;;4.00;;
21420;SDS011;10871;50.144;8.428;2023-09-30T15:06:29;7.55;;;3.50;;
21420;SDS011;10871;50.144;8.428;2023-09-30T15:08:56;7.75;;;3.95;;
21420;SDS011;10871;50.144;8.428;2023-09-30T15:11:23;6.05;;;4.07;;
21420;SDS011;10871;50.144;8.428;2023-09-30T15:13:50;6.28;;;3.42;;
21420;SDS011;10871;50.144;8.428;2023-09-30T15:16:19;7.72;;;3.55;;